createdAt,value
2023-01-04T00:01:23.352Z,7.90
2023-01-04T00:03:51.259Z,7.90
2023-01-04T00:06:19.689Z,8.00
2023-01-04T00:08:47.641Z,7.90
2023-01-04T00:11:18.529Z,8.30
2023-01-04T00:13:46.871Z,8.00
2023-01-04T00:16:17.776Z,7.90
2023-01-04T00:18:45.530Z,7.90
2023-01-04T00:21:18.251Z,8.30
2023-01-04T00:23:48.466Z,8.20
2023-01-04T00:26:19.199Z,8.20
2023-01-04T00:28:54.017Z,7.90
2023-01-04T00:31:23.388Z,8.10
2023-01-04T00:33:55.261Z,8.20
2023-01-04T00:36:23.164Z,7.90
2023-01-04T00:39:10.419Z,7.80
2023-01-04T00:44:27.503Z,7.90
2023-01-04T00:46:55.097Z,8.00
2023-01-04T00:49:22.678Z,7.90
2023-01-04T00:51:50.394Z,8.20
2023-01-04T00:54:18.016Z,7.80
2023-01-04T00:56:45.471Z,8.10
2023-01-04T00:59:14.829Z,8.10
2023-01-04T01:01:43.194Z,8.20
2023-01-04T01:04:13.806Z,8.00
2023-01-04T01:06:41.749Z,8.00
2023-01-04T01:09:09.692Z,8.20
2023-01-04T01:11:39.066Z,8.00
2023-01-04T01:14:08.243Z,7.90
2023-01-04T01:16:54.288Z,8.20
2023-01-04T01:19:23.344Z,8.20
2023-01-04T01:21:50.879Z,8.00
2023-01-04T01:24:19.827Z,7.80
2023-01-04T01:26:47.441Z,8.00
2023-01-04T01:29:15.807Z,8.30
2023-01-04T01:31:43.446Z,8.00
2023-01-04T01:34:11.173Z,8.20
2023-01-04T01:36:38.717Z,7.80
2023-01-04T01:39:06.796Z,8.10
2023-01-04T01:41:35.602Z,8.10
2023-01-04T01:44:05.727Z,8.00
2023-01-04T01:46:47.263Z,7.90
2023-01-04T01:49:14.854Z,7.90
2023-01-04T01:51:42.961Z,7.90
2023-01-04T01:54:13.944Z,7.80
2023-01-04T01:56:43.468Z,8.10
2023-01-04T01:59:13.442Z,8.20
2023-01-04T02:01:41.362Z,8.20
2023-01-04T02:04:09.997Z,8.00
2023-01-04T02:06:43.618Z,8.20
2023-01-04T02:09:12.564Z,7.90
2023-01-04T02:11:40.003Z,7.90
2023-01-04T02:14:27.428Z,7.80
2023-01-04T02:17:19.256Z,8.20
2023-01-04T02:20:10.985Z,8.10
2023-01-04T02:23:12.824Z,8.00
2023-01-04T02:25:58.653Z,8.20
2023-01-04T02:29:03.726Z,8.30
2023-01-04T02:31:50.260Z,8.10
2023-01-04T02:34:32.579Z,8.30
2023-01-04T02:37:18.808Z,8.20
2023-01-04T02:40:04.915Z,8.30
2023-01-04T02:43:10.792Z,8.40
2023-01-04T02:45:58.773Z,8.10
2023-01-04T02:48:53.312Z,8.00
2023-01-04T02:51:35.684Z,8.00
2023-01-04T02:54:10.746Z,8.20
2023-01-04T02:56:57.330Z,7.90
2023-01-04T02:59:55.325Z,8.00
2023-01-04T03:03:07.378Z,7.60
2023-01-04T03:06:22.831Z,7.70
2023-01-04T03:09:07.056Z,8.00
2023-01-04T03:12:03.869Z,7.50
2023-01-04T03:14:35.460Z,7.50
2023-01-04T03:17:10.430Z,7.80
2023-01-04T03:19:52.263Z,7.70
2023-01-04T03:22:57.591Z,7.80
2023-01-04T03:25:56.895Z,7.40
2023-01-04T03:28:46.427Z,7.90
2023-01-04T03:31:43.011Z,7.90
2023-01-04T03:34:30.274Z,7.40
2023-01-04T03:37:24.746Z,7.50
2023-01-04T03:40:46.042Z,7.40
2023-01-04T03:43:41.948Z,7.70
2023-01-04T03:46:39.419Z,7.60
2023-01-04T03:49:24.220Z,7.60
2023-01-04T03:51:56.675Z,7.10
2023-01-04T03:54:37.783Z,7.40
2023-01-04T03:57:07.837Z,7.00
2023-01-04T03:59:48.254Z,7.30
2023-01-04T04:02:19.592Z,6.90
2023-01-04T04:05:05.840Z,7.30
2023-01-04T04:07:52.000Z,7.20
2023-01-04T04:10:19.511Z,7.20
2023-01-04T04:12:48.952Z,7.00
2023-01-04T04:15:16.677Z,7.10
2023-01-04T04:17:44.457Z,6.80
2023-01-04T04:20:13.091Z,6.90
2023-01-04T04:22:41.086Z,7.20
2023-01-04T04:25:09.060Z,6.90
2023-01-04T04:27:36.538Z,7.10
2023-01-04T04:30:04.932Z,7.10
2023-01-04T04:32:32.450Z,7.00
2023-01-04T04:35:00.015Z,6.70
2023-01-04T04:37:30.383Z,6.60
2023-01-04T04:39:58.848Z,6.70
2023-01-04T04:42:26.390Z,7.10
2023-01-04T04:44:53.856Z,6.80
2023-01-04T04:47:21.365Z,6.70
2023-01-04T04:49:48.992Z,6.90
2023-01-04T04:52:16.446Z,7.10
2023-01-04T04:54:44.019Z,7.10
2023-01-04T04:57:11.499Z,6.80
2023-01-04T04:59:39.045Z,7.00
2023-01-04T05:02:06.693Z,7.00
2023-01-04T05:04:34.331Z,6.70
2023-01-04T05:07:02.834Z,6.70
2023-01-04T05:09:32.523Z,6.70
2023-01-04T05:12:18.614Z,6.50
2023-01-04T05:14:46.086Z,6.60
2023-01-04T05:17:13.607Z,6.50
2023-01-04T05:19:41.090Z,6.70
2023-01-04T05:22:08.544Z,6.40
2023-01-04T05:24:36.018Z,6.40
2023-01-04T05:27:03.577Z,6.40
2023-01-04T05:29:49.246Z,6.40
2023-01-04T05:32:16.827Z,6.40
2023-01-04T05:34:44.323Z,6.40
2023-01-04T05:37:11.788Z,6.60
2023-01-04T05:39:39.329Z,6.40
2023-01-04T05:42:25.287Z,6.40
2023-01-04T05:44:54.359Z,6.40
2023-01-04T05:47:22.654Z,6.40
2023-01-04T05:49:50.506Z,6.50
2023-01-04T05:52:18.460Z,6.20
2023-01-04T05:54:46.501Z,6.40
2023-01-04T05:57:14.221Z,6.20
2023-01-04T05:59:42.364Z,6.30
2023-01-04T06:02:18.884Z,6.40
2023-01-04T06:04:48.469Z,6.20
2023-01-04T06:07:19.470Z,6.30
2023-01-04T06:09:47.171Z,6.20
2023-01-04T06:12:14.720Z,6.20
2023-01-04T06:14:42.238Z,6.20
2023-01-04T06:17:09.806Z,6.20
2023-01-04T06:19:37.385Z,6.20
2023-01-04T06:22:05.119Z,6.30
2023-01-04T06:24:34.175Z,6.20
2023-01-04T06:27:02.693Z,6.20
2023-01-04T06:29:30.153Z,6.10
2023-01-04T06:31:57.649Z,6.20
2023-01-04T06:34:30.518Z,6.20
2023-01-04T06:36:59.090Z,6.00
2023-01-04T06:39:27.508Z,5.90
2023-01-04T06:41:59.063Z,6.10
2023-01-04T06:44:31.407Z,6.00
2023-01-04T06:46:58.902Z,6.00
2023-01-04T06:49:26.499Z,6.00
2023-01-04T06:51:54.000Z,5.90
2023-01-04T06:54:21.568Z,6.10
2023-01-04T06:56:49.022Z,6.00
2023-01-04T06:59:16.487Z,5.90
2023-01-04T07:01:44.166Z,6.00
2023-01-04T07:04:11.791Z,5.80
2023-01-04T07:06:39.221Z,6.10
2023-01-04T07:09:06.779Z,5.90
2023-01-04T07:11:34.179Z,6.10
2023-01-04T07:14:01.766Z,6.00
2023-01-04T07:16:29.264Z,6.00
2023-01-04T07:18:56.769Z,5.90
2023-01-04T07:21:25.815Z,5.80
2023-01-04T07:23:53.281Z,5.80
2023-01-04T07:26:20.708Z,6.10
2023-01-04T07:29:06.546Z,6.00
2023-01-04T07:31:34.099Z,6.10
2023-01-04T07:34:01.668Z,6.10
2023-01-04T07:36:29.152Z,6.30
2023-01-04T07:38:56.601Z,6.20
2023-01-04T07:41:24.060Z,6.40
2023-01-04T07:46:02.750Z,6.30
2023-01-04T07:48:30.402Z,6.20
2023-01-04T07:50:57.890Z,6.50
2023-01-04T07:56:18.845Z,5.90
2023-01-04T07:58:46.753Z,6.40
2023-01-04T08:01:16.627Z,6.30
2023-01-04T08:03:47.536Z,6.50
2023-01-04T08:06:16.413Z,6.30
2023-01-04T08:08:44.001Z,6.30
2023-01-04T08:11:14.591Z,6.40
2023-01-04T08:13:42.460Z,6.50
2023-01-04T08:16:18.496Z,6.60
2023-01-04T08:18:46.021Z,6.50
2023-01-04T08:21:13.519Z,6.40
2023-01-04T08:23:41.014Z,6.40
2023-01-04T08:26:11.560Z,6.60
2023-01-04T08:28:39.141Z,6.50
2023-01-04T08:31:12.617Z,6.40
2023-01-04T08:33:41.480Z,6.60
2023-01-04T08:36:26.224Z,6.40
2023-01-04T08:39:06.389Z,6.50
2023-01-04T08:44:38.293Z,6.40
2023-01-04T08:47:06.085Z,6.60
2023-01-04T08:49:33.830Z,6.50
2023-01-04T08:52:01.352Z,6.50
2023-01-04T08:54:28.873Z,6.70
2023-01-04T08:56:56.339Z,6.50
2023-01-04T08:59:23.849Z,6.70
2023-01-04T09:01:51.418Z,6.70
2023-01-04T09:04:19.119Z,6.70
2023-01-04T09:06:46.711Z,6.80
2023-01-04T09:09:14.978Z,6.60
2023-01-04T09:11:42.504Z,6.60
2023-01-04T09:14:10.643Z,6.60
2023-01-04T09:16:38.771Z,6.80
2023-01-04T09:19:06.969Z,6.80
2023-01-04T09:21:34.921Z,6.60
2023-01-04T09:24:02.546Z,6.70
2023-01-04T09:26:30.355Z,6.70
2023-01-04T09:28:58.190Z,6.70
2023-01-04T09:31:27.783Z,6.80
2023-01-04T09:34:14.064Z,6.70
2023-01-04T09:36:42.811Z,6.80
2023-01-04T09:39:16.697Z,6.80
2023-01-04T09:41:59.758Z,6.60
2023-01-04T09:45:21.359Z,6.60
2023-01-04T09:47:45.743Z,6.70
2023-01-04T09:50:37.462Z,6.70
2023-01-04T09:53:04.930Z,6.70
2023-01-04T09:55:40.871Z,6.60
2023-01-04T09:58:30.853Z,6.80
2023-01-04T10:01:01.241Z,6.60
2023-01-04T10:03:33.483Z,6.90
2023-01-04T10:06:01.914Z,6.80
2023-01-04T10:08:31.486Z,6.80
2023-01-04T10:11:25.262Z,6.70
2023-01-04T10:13:59.029Z,6.90
2023-01-04T10:21:17.134Z,6.90
2023-01-04T10:23:18.364Z,6.90
2023-01-04T10:25:57.449Z,6.70
2023-01-04T10:28:56.828Z,6.80
2023-01-04T10:31:51.438Z,6.80
2023-01-04T10:34:25.301Z,6.70
2023-01-04T10:36:59.261Z,6.90
2023-01-04T10:39:33.059Z,6.90
2023-01-04T10:42:27.484Z,6.90
2023-01-04T10:45:09.463Z,7.00
2023-01-04T10:48:02.571Z,6.90
2023-01-04T10:50:41.761Z,7.10
2023-01-04T10:53:23.645Z,6.90
2023-01-04T10:56:28.319Z,6.90
2023-01-04T10:59:04.854Z,6.90
2023-01-04T11:01:39.477Z,7.00
2023-01-04T11:04:13.941Z,7.00
2023-01-04T11:06:51.186Z,6.90
2023-01-04T11:09:29.287Z,6.90
2023-01-04T11:11:57.931Z,7.10
2023-01-04T11:14:25.895Z,7.00
2023-01-04T11:16:59.351Z,7.10
2023-01-04T11:19:28.989Z,6.90
2023-01-04T11:22:35.457Z,7.00
2023-01-04T11:25:34.691Z,7.00
2023-01-04T11:28:49.739Z,7.00
2023-01-04T11:31:30.819Z,6.90
2023-01-04T11:34:01.198Z,7.10
2023-01-04T11:36:31.674Z,6.90
2023-01-04T11:38:59.528Z,7.00
2023-01-04T11:41:27.730Z,7.00
2023-01-04T11:44:05.104Z,7.00
2023-01-04T11:46:34.817Z,6.90
2023-01-04T11:49:02.387Z,7.00
2023-01-04T11:51:29.958Z,7.00
2023-01-04T11:54:05.776Z,7.00
2023-01-04T11:56:37.879Z,7.00
2023-01-04T11:59:22.915Z,7.00
2023-01-04T12:02:42.212Z,7.10
2023-01-04T12:05:28.047Z,7.10
2023-01-04T12:07:58.147Z,7.00
2023-01-04T12:10:27.952Z,7.00
2023-01-04T12:12:57.442Z,7.00
2023-01-04T12:15:53.753Z,7.10
2023-01-04T12:18:36.289Z,7.00
2023-01-04T12:21:04.337Z,7.10
2023-01-04T12:23:34.100Z,7.00
2023-01-04T12:26:02.551Z,7.10
2023-01-04T12:28:33.530Z,7.00
2023-01-04T12:31:20.256Z,7.10
2023-01-04T12:34:23.593Z,7.10
2023-01-04T12:36:51.125Z,7.00
2023-01-04T12:39:22.702Z,7.10
2023-01-04T12:42:03.743Z,7.00
2023-01-04T12:44:38.740Z,7.00
2023-01-04T12:47:36.881Z,7.00
2023-01-04T12:50:12.453Z,7.00
2023-01-04T12:53:10.836Z,7.00
2023-01-04T12:55:42.014Z,7.00
2023-01-04T12:59:23.612Z,7.00
2023-01-04T13:01:29.161Z,7.00
2023-01-04T13:04:05.942Z,7.00
2023-01-04T13:06:42.791Z,7.00
2023-01-04T13:09:24.994Z,7.00
2023-01-04T13:12:35.381Z,7.00
2023-01-04T13:15:19.504Z,7.00
2023-01-04T13:17:48.115Z,7.10
2023-01-04T13:20:22.338Z,7.10
2023-01-04T13:22:53.770Z,7.10
2023-01-04T13:25:23.340Z,7.20
2023-01-04T13:28:04.906Z,7.10
2023-01-04T13:30:38.404Z,7.10
2023-01-04T13:33:27.766Z,7.10
2023-01-04T13:36:11.693Z,7.10
2023-01-04T13:38:40.723Z,7.10
2023-01-04T13:41:21.875Z,7.10
2023-01-04T13:44:08.111Z,7.10
2023-01-04T13:46:35.692Z,7.10
2023-01-04T13:49:03.386Z,7.20
2023-01-04T13:51:38.030Z,7.20
2023-01-04T13:54:17.345Z,7.10
2023-01-04T13:56:49.691Z,7.10
2023-01-04T13:59:21.193Z,7.10
2023-01-04T14:01:49.608Z,7.10
2023-01-04T14:04:27.424Z,7.10
2023-01-04T14:06:59.391Z,7.10
2023-01-04T14:09:43.417Z,7.20
2023-01-04T14:12:26.607Z,7.20
2023-01-04T14:15:14.343Z,7.20
2023-01-04T14:17:57.569Z,7.20
2023-01-04T14:20:31.078Z,7.20
2023-01-04T14:22:59.547Z,7.20
2023-01-04T14:25:45.083Z,7.20
2023-01-04T14:28:27.345Z,7.20
2023-01-04T14:31:04.437Z,7.20
2023-01-04T14:33:43.533Z,7.20
2023-01-04T14:36:28.978Z,7.20
2023-01-04T14:39:06.462Z,7.30
2023-01-04T14:41:42.634Z,7.30
2023-01-04T14:44:16.475Z,7.30
2023-01-04T14:46:48.585Z,7.30
2023-01-04T14:49:16.714Z,7.30
2023-01-04T14:51:52.047Z,7.40
2023-01-04T14:54:25.082Z,7.30
2023-01-04T14:56:57.263Z,7.40
2023-01-04T14:59:25.785Z,7.30
2023-01-04T15:01:54.529Z,7.30
2023-01-04T15:04:22.525Z,7.30
2023-01-04T15:06:53.251Z,7.20
2023-01-04T15:09:21.003Z,7.20
2023-01-04T15:11:48.599Z,7.30
2023-01-04T15:14:16.400Z,7.30
2023-01-04T15:16:44.582Z,7.30
2023-01-04T15:19:12.183Z,7.30
2023-01-04T15:21:41.612Z,7.20
2023-01-04T15:24:10.534Z,7.20
2023-01-04T15:26:39.558Z,7.20
2023-01-04T15:29:08.535Z,7.10
2023-01-04T15:31:39.728Z,7.10
2023-01-04T15:34:10.338Z,7.00
2023-01-04T15:36:41.039Z,7.10
2023-01-04T15:39:12.476Z,7.10
2023-01-04T15:41:58.842Z,7.10
2023-01-04T15:44:26.710Z,7.10
2023-01-04T15:46:54.772Z,7.00
2023-01-04T15:49:22.321Z,7.00
2023-01-04T15:51:49.816Z,7.00
2023-01-04T15:54:17.580Z,7.00
2023-01-04T15:56:45.259Z,6.90
2023-01-04T15:59:13.891Z,6.90
2023-01-04T16:01:42.050Z,6.90
2023-01-04T16:04:11.626Z,6.90
2023-01-04T16:06:39.728Z,6.80
2023-01-04T16:09:08.334Z,6.80
2023-01-04T16:11:35.945Z,6.80
2023-01-04T16:14:03.785Z,6.80
2023-01-04T16:16:32.738Z,6.70
2023-01-04T16:19:00.506Z,6.70
2023-01-04T16:21:28.986Z,6.70
2023-01-04T16:24:06.864Z,6.70
2023-01-04T16:26:40.597Z,6.70
2023-01-04T16:29:08.615Z,6.70
2023-01-04T16:31:37.414Z,6.70
2023-01-04T16:34:05.227Z,6.80
2023-01-04T16:36:32.955Z,6.80
2023-01-04T16:39:02.123Z,6.70
2023-01-04T16:41:30.098Z,6.80
2023-01-04T16:44:01.085Z,6.80
2023-01-04T16:46:31.582Z,6.70
2023-01-04T16:49:09.669Z,6.70
2023-01-04T16:51:38.935Z,6.70
2023-01-04T16:54:09.151Z,6.70
2023-01-04T16:56:37.513Z,6.60
2023-01-04T16:59:05.540Z,6.70
2023-01-04T17:01:35.680Z,6.70
2023-01-04T17:04:10.520Z,6.70
2023-01-04T17:06:41.420Z,6.80
2023-01-04T17:09:17.970Z,6.80
2023-01-04T17:15:23.640Z,6.80
2023-01-04T17:17:43.420Z,6.80
2023-01-04T17:20:12.285Z,6.90
2023-01-04T17:22:40.632Z,6.90
2023-01-04T17:25:08.460Z,6.90
2023-01-04T17:27:36.170Z,6.90
2023-01-04T17:30:04.735Z,6.90
2023-01-04T17:32:32.288Z,6.90
2023-01-04T17:34:59.734Z,7.00
2023-01-04T17:37:27.234Z,7.00
2023-01-04T17:39:54.850Z,7.10
2023-01-04T17:42:23.163Z,7.00
2023-01-04T17:44:51.432Z,7.00
2023-01-04T17:47:19.454Z,7.10
2023-01-04T17:49:47.013Z,7.10
2023-01-04T17:52:20.908Z,7.10
2023-01-04T17:54:52.928Z,7.10
2023-01-04T17:57:20.465Z,7.10
2023-01-04T17:59:47.953Z,7.10
2023-01-04T18:02:15.531Z,7.00
2023-01-04T18:04:43.194Z,7.00
2023-01-04T18:09:43.082Z,7.00
2023-01-04T18:12:10.813Z,7.00
2023-01-04T18:14:38.836Z,7.00
2023-01-04T18:17:06.506Z,7.00
2023-01-04T18:19:34.187Z,7.00
2023-01-04T18:22:02.115Z,7.00
2023-01-04T18:24:36.591Z,7.00
2023-01-04T18:27:26.431Z,7.10
2023-01-04T18:29:55.899Z,7.10
2023-01-04T18:32:25.169Z,7.10
2023-01-04T18:34:52.815Z,7.00
2023-01-04T18:37:20.476Z,7.00
2023-01-04T18:39:48.639Z,7.00
2023-01-04T18:42:16.272Z,7.00
2023-01-04T18:44:48.542Z,7.00
2023-01-04T18:47:21.054Z,6.90
2023-01-04T18:49:51.882Z,6.90
2023-01-04T18:52:20.029Z,6.90
2023-01-04T18:54:48.722Z,6.90
2023-01-04T18:57:16.504Z,6.90
2023-01-04T18:59:43.993Z,6.90
2023-01-04T19:02:17.564Z,6.90
2023-01-04T19:04:45.488Z,6.90
2023-01-04T19:07:13.104Z,6.90
2023-01-04T19:09:42.619Z,6.90
2023-01-04T19:12:10.732Z,7.00
2023-01-04T19:14:38.379Z,7.00
2023-01-04T19:17:06.136Z,7.00
2023-01-04T19:19:34.227Z,7.00
2023-01-04T19:22:02.174Z,7.00
2023-01-04T19:24:29.740Z,6.90
2023-01-04T19:27:03.630Z,6.90
2023-01-04T19:29:32.378Z,6.90
2023-01-04T19:31:59.833Z,6.90
2023-01-04T19:34:27.435Z,7.00
2023-01-04T19:36:55.092Z,7.10
2023-01-04T19:39:22.616Z,7.10
2023-01-04T19:41:50.107Z,7.00
2023-01-04T19:44:18.020Z,7.10
2023-01-04T19:46:45.472Z,7.00
2023-01-04T19:49:15.452Z,6.90
2023-01-04T19:51:45.341Z,6.90
2023-01-04T19:54:13.658Z,6.90
2023-01-04T19:56:41.319Z,6.90
2023-01-04T19:59:09.100Z,6.90
2023-01-04T20:01:36.860Z,6.90
2023-01-04T20:04:04.890Z,6.90
2023-01-04T20:06:33.490Z,6.90
2023-01-04T20:09:00.987Z,6.80
2023-01-04T20:11:28.552Z,6.80
2023-01-04T20:13:56.196Z,6.80
2023-01-04T20:16:23.723Z,6.80
2023-01-04T20:18:55.205Z,6.80
2023-01-04T20:21:22.763Z,6.70
2023-01-04T20:23:50.269Z,6.70
2023-01-04T20:26:19.326Z,6.70
2023-01-04T20:28:46.918Z,6.70
2023-01-04T20:31:16.965Z,6.60
2023-01-04T20:33:44.971Z,6.60
2023-01-04T20:36:15.699Z,6.70
2023-01-04T20:38:45.472Z,6.70
2023-01-04T20:41:17.443Z,6.70
2023-01-04T20:43:46.554Z,6.70
2023-01-04T20:46:20.321Z,6.70
2023-01-04T20:48:48.511Z,6.70
2023-01-04T20:51:21.397Z,6.70
2023-01-04T20:53:49.496Z,6.70
2023-01-04T20:56:22.426Z,6.60
2023-01-04T20:58:51.146Z,6.70
2023-01-04T21:01:20.650Z,6.70
2023-01-04T21:03:49.167Z,6.70
2023-01-04T21:06:18.374Z,6.70
2023-01-04T21:08:46.871Z,6.60
2023-01-04T21:11:14.944Z,6.60
2023-01-04T21:13:43.094Z,6.60
2023-01-04T21:16:11.728Z,6.60
2023-01-04T21:18:39.306Z,6.60
2023-01-04T21:21:08.902Z,6.60
2023-01-04T21:23:38.306Z,6.60
2023-01-04T21:26:13.748Z,6.50
2023-01-04T21:28:41.313Z,6.50
2023-01-04T21:31:14.978Z,6.50
2023-01-04T21:33:47.287Z,6.50
2023-01-04T21:36:17.919Z,6.50
2023-01-04T21:38:48.915Z,6.50
2023-01-04T21:41:16.550Z,6.50
2023-01-04T21:43:44.057Z,6.50
2023-01-04T21:46:14.946Z,6.50
2023-01-04T21:48:44.425Z,6.50
2023-01-04T21:51:13.315Z,6.50
2023-01-04T21:53:41.642Z,6.60
2023-01-04T21:56:12.521Z,6.50
2023-01-04T21:58:40.693Z,6.50
2023-01-04T22:01:12.478Z,6.50
2023-01-04T22:03:40.229Z,6.50
2023-01-04T22:06:08.690Z,6.40
2023-01-04T22:08:36.835Z,6.40
2023-01-04T22:11:05.076Z,6.40
2023-01-04T22:13:32.628Z,6.50
2023-01-04T22:16:00.200Z,6.50
2023-01-04T22:18:27.758Z,6.50
2023-01-04T22:21:03.284Z,6.50
2023-01-04T22:23:32.058Z,6.40
2023-01-04T22:26:00.229Z,6.40
2023-01-04T22:28:34.706Z,6.40
2023-01-04T22:31:08.759Z,6.40
2023-01-04T22:33:37.754Z,6.40
2023-01-04T22:36:17.141Z,6.40
2023-01-04T22:38:47.078Z,6.30
2023-01-04T22:41:16.631Z,6.30
2023-01-04T22:43:44.430Z,6.30
2023-01-04T22:46:17.488Z,6.20
2023-01-04T22:48:45.774Z,6.20
2023-01-04T22:51:16.211Z,6.30
2023-01-04T22:53:44.426Z,6.20
2023-01-04T22:56:19.522Z,6.10
2023-01-04T22:58:52.918Z,6.10
2023-01-04T23:01:26.944Z,6.00
2023-01-04T23:03:55.293Z,6.00
2023-01-04T23:06:24.836Z,6.10
2023-01-04T23:08:57.767Z,6.00
2023-01-04T23:11:26.395Z,6.00
2023-01-04T23:13:54.721Z,6.00
2023-01-04T23:16:27.857Z,6.00
2023-01-04T23:18:57.374Z,6.00
2023-01-04T23:21:25.106Z,6.00
2023-01-04T23:23:52.764Z,6.00
2023-01-04T23:26:22.707Z,6.00
2023-01-04T23:28:50.430Z,5.90
2023-01-04T23:31:21.327Z,6.00
2023-01-04T23:33:53.604Z,6.00
2023-01-04T23:36:24.267Z,6.00
2023-01-04T23:38:54.517Z,6.00
2023-01-04T23:41:42.690Z,6.00
2023-01-04T23:44:19.966Z,6.00
2023-01-04T23:46:53.028Z,6.00
2023-01-04T23:49:20.939Z,6.00
2023-01-04T23:51:48.633Z,6.00
2023-01-04T23:54:16.260Z,6.00
2023-01-04T23:56:43.790Z,6.10
2023-01-04T23:59:11.683Z,6.10
